Terminal Aerodrome Forecast
Issued by NWS

Home | Current Version | Previous Version | Text Only | Print | Product List | Glossary On
Versions: 1 2 3 4 5 6 7 8 9 10 11 12 13 14 15 16 17 18 19 20
359
FTUS43 KAPX 241430 AAA
TAFMBL
TAF AMD
KMBL 241430Z 2415/2512 31012KT P6SM BKN100
     FM241600 30009KT P6SM VCSH SCT040 BKN070
     FM241800 28009KT P6SM VCSH BKN040
     FM242200 26008KT P6SM BKN070
     FM250300 28004KT P6SM BKN090
     FM250800 29004KT P6SM BKN045
     FM251000 29005KT P6SM BKN030=

USA.gov is the U.S. government's official web portal to all federal, state and local government web resources and services.